METAR Data
IDs: Format: Raw Decoded Include TAF

Data at: 0551 UTC 24 Sep 2018

KW75 240535Z AUTO 32003KT 7SM OVC005 20/20 A3017 RMK AO1 P0008 T02010201
KW75 240515Z AUTO 30004KT 10SM OVC005 20/20 A3018 RMK AO1 T02030203
KW75 240455Z AUTO 33004KT 7SM OVC005 20/20 A3018 RMK AO1 P0001 T02030203 402270198
KW75 240435Z AUTO 33004KT 10SM OVC005 20/20 A3017 RMK AO1 T02040204
KW75 240415Z AUTO 33005KT 10SM OVC005 21/21 A3017 RMK AO1 T02050205
KW75 240355Z AUTO 34006KT 7SM OVC005 21/21 A3017 RMK AO1 T02050205
KW75 240335Z AUTO 33005KT 10SM BKN005 OVC011 21/21 A3017 RMK AO1 T02060206
KW75 240315Z AUTO 33005KT 7SM BKN005 OVC014 21/21 A3017 RMK AO1 T02060206
KW75 240255Z AUTO 34005KT 10SM BKN005 OVC014 21/21 A3017 RMK AO1 T02050205
KW75 240235Z AUTO 01004KT 10SM OVC005 21/21 A3016 RMK AO1 T02050205
KW75 240215Z AUTO 36006KT 10SM BKN005 OVC011 21/21 A3017 RMK AO1 T02050205
KW75 240155Z AUTO 36006KT 10SM OVC005 21/21 A3017 RMK AO1 T02050205
KW75 240135Z AUTO 36006KT 10SM OVC005 21/21 A3016 RMK AO1 T02050205
KW75 240115Z AUTO 36006KT 10SM OVC007 21/21 A3015 RMK AO1 T02050205
KW75 240055Z AUTO 01006KT 10SM OVC007 21/21 A3015 RMK AO1 T02050205
KW75 240035Z AUTO 01006KT 10SM BKN007 BKN011 OVC020 20/20 A3015 RMK AO1 T02040204
KW75 240015Z AUTO 02004KT 10SM BKN007 OVC013 20/20 A3014 RMK AO1 T02020202
KW75 232355Z AUTO 01005KT 10SM OVC007 20/20 A3014 RMK AO1 60067 T02010201 10218 20198
KW75 232335Z AUTO 01006KT 10SM BKN007 OVC012 20/20 A3013 RMK AO1 T02000200
KW75 232315Z AUTO 01005KT 10SM BKN007 OVC012 20/20 A3013 RMK AO1 T02000200
KW75 232255Z AUTO 01007KT 10SM OVC010 20/20 A3013 RMK AO1 T02000200
KW75 232235Z AUTO 01006KT 10SM OVC010 20/20 A3013 RMK AO1 T02000200
KW75 232215Z AUTO 02005KT 10SM SCT008 OVC013 20/20 A3013 RMK AO1 T01990199
KW75 232155Z AUTO 01004KT 10SM BKN006 OVC015 20/20 A3013 RMK AO1 P0001 T01980198
KW75 232135Z AUTO 02005KT 7SM OVC006 20/20 A3013 RMK AO1 P0001 T01980198
KW75 232115Z AUTO 02005KT 5SM OVC006 20/20 A3012 RMK AO1 P0001 T02000200
KW75 232055Z AUTO 01008KT 350V050 5SM OVC006 20/20 A3012 RMK AO1 P0006 60066 T02040204
KW75 232035Z AUTO 05006KT 7SM BKN006 OVC013 21/21 A3011 RMK AO1 P0005 T02100210
KW75 232015Z AUTO 05005KT 4SM BKN006 OVC011 21/21 A3011 RMK AO1 P0003 T02100210
KW75 231955Z AUTO 02003KT 4SM OVC006 21/21 A3011 RMK AO1 P0049 T02100210
KW75 231935Z AUTO 36003KT 1 1/4SM OVC006 21/21 A3011 RMK AO1 P0043 T02100210
KW75 231915Z AUTO 34007KT 3SM OVC006 21/21 A3011 RMK AO1 P0012 T02100210
KW75 231855Z AUTO 34006KT 7SM OVC008 21/21 A3012 RMK AO1 P0010 T02100210
KW75 231835Z AUTO 00000KT 3SM OVC010 22/22 A3012 RMK AO1 P0007 T02170217
KW75 231815Z AUTO 10007KT 4SM OVC010 22/22 A3012 RMK AO1 P0003 T02170217
KW75 231755Z AUTO 12006KT 3SM OVC012 22/22 A3012 RMK AO1 P0004 60034 T02180218 10220 20209
KW75 231735Z AUTO 10008G16KT 10SM OVC012 22/22 A3012 RMK AO1 T02200220
KW75 231715Z AUTO 09008G14KT 10SM OVC012 22/22 A3013 RMK AO1 T02180218
KW75 231655Z AUTO 09008G16KT 7SM BKN012 OVC017 22/22 A3013 RMK AO1 P0001 T02170217
KW75 231635Z AUTO 10010G15KT 10SM BKN010 OVC014 22/22 A3013 RMK AO1 P0001 T02170217
KW75 231615Z AUTO 08007G14KT 040V110 7SM OVC010 22/22 A3013 RMK AO1 P0001 T02150215
KW75 231555Z AUTO 08006G15KT 5SM OVC010 22/22 A3013 RMK AO1 P0020 T02150215
KW75 231535Z AUTO 06004KT 5SM OVC010 21/21 A3014 RMK AO1 P0019 T02130213
KW75 231515Z AUTO 05006KT 2SM OVC010 22/22 A3015 RMK AO1 P0009 T02150215
KW75 231455Z AUTO 04004KT 3SM OVC010 22/22 A3015 RMK AO1 P0007 60008 T02150215
KW75 231435Z AUTO 05007KT 010V070 10SM OVC012 22/22 A3015 RMK AO1 T02170217
KW75 231415Z AUTO 05009G14KT 10SM OVC010 22/22 A3015 RMK AO1 T02170217
KW75 231355Z AUTO 06007KT 10SM OVC010 22/22 A3014 RMK AO1 T02160216
KW75 231335Z AUTO 07007KT 10SM OVC010 22/22 A3014 RMK AO1 T02150215
KW75 231315Z AUTO 08006KT 10SM OVC010 22/22 A3013 RMK AO1 T02150215
KW75 231255Z AUTO 08007KT 10SM OVC008 21/21 A3013 RMK AO1 P0001 T02140214
KW75 231235Z AUTO 06007KT 10SM OVC008 21/21 A3013 RMK AO1 P0001 T02120212
KW75 231215Z AUTO 06003KT 10SM OVC008 21/21 A3013 RMK AO1 T02100210
KW75 231155Z AUTO 00000KT 7SM BKN008 OVC012 21/21 A3012 RMK AO1 60062 70062 T02080208 10225 20202
KW75 231135Z AUTO 06007KT 10SM BKN008 OVC016 21/21 A3013 RMK AO1 T02060206
KW75 231115Z AUTO 02005KT 10SM BKN007 OVC011 21/21 A3012 RMK AO1 T02050205
KW75 231055Z AUTO 02005KT 1SM OVC007 20/20 A3012 RMK AO1 P0060 T02020202
KW75 231035Z AUTO 29005KT 7SM OVC007 21/21 A3012 RMK AO1 P0009 T02070207
KW75 231015Z AUTO 01005KT 7SM OVC009 21/21 A3011 RMK AO1 P0003 T02070207
KW75 230955Z AUTO 01004KT 10SM OVC011 21/21 A3011 RMK AO1 T02080208
KW75 230935Z AUTO 02003KT 10SM OVC013 21/21 A3011 RMK AO1 T02060206
KW75 230915Z AUTO 04006KT 10SM OVC015 21/21 A3011 RMK AO1 T02070207
KW75 230855Z AUTO 03006KT 10SM BKN017 OVC023 21/21 A3011 RMK AO1 T02080208
KW75 230835Z AUTO 04003KT 10SM OVC023 21/21 A3011 RMK AO1 T02070207
KW75 230815Z AUTO 06004KT 10SM OVC021 21/21 A3011 RMK AO1 T02110211
KW75 230755Z AUTO 03005KT 10SM OVC018 22/21 A3011 RMK AO1 T02160214
KW75 230735Z AUTO 05005KT 10SM BKN020 OVC027 22/22 A3011 RMK AO1 T02220215
KW75 230715Z AUTO 07005KT 10SM OVC025 23/21 A3011 RMK AO1 T02250211
KW75 230655Z AUTO 08004KT 10SM OVC027 23/20 A3013 RMK AO1 T02250204
KW75 230635Z AUTO 05008KT 10SM BKN028 OVC034 23/21 A3012 RMK AO1 T02250206
KW75 230615Z AUTO 06006KT 10SM OVC029 23/21 A3013 RMK AO1 T02250206
KW75 230555Z AUTO 07004KT 10SM OVC027 23/21 A3014 RMK AO1 T02250205 10235 20225
KW75 230535Z AUTO 08005KT 10SM OVC025 23/21 A3013 RMK AO1 T02260207
KW75 230515Z AUTO 06007KT 10SM BKN022 OVC027 23/21 A3014 RMK AO1 T02250208
KW75 230455Z AUTO 08006KT 10SM OVC026 23/21 A3014 RMK AO1 T02260209 402840210
KW75 230435Z AUTO 08005KT 10SM BKN026 OVC033 23/21 A3014 RMK AO1 T02270210
KW75 230415Z AUTO 07008KT 10SM OVC024 23/21 A3015 RMK AO1 T02280208
KW75 230355Z AUTO 08006KT 10SM OVC024 23/21 A3015 RMK AO1 T02280209
KW75 230335Z AUTO 08006KT 10SM OVC024 23/21 A3015 RMK AO1 T02300213
KW75 230315Z AUTO 07007KT 10SM OVC026 23/22 A3014 RMK AO1 T02300217
KW75 230255Z AUTO 07009KT 10SM OVC026 23/22 A3014 RMK AO1 T02300217
KW75 230235Z AUTO 07008KT 10SM SCT018 OVC024 23/22 A3014 RMK AO1 T02280219
KW75 230215Z AUTO 06007KT 10SM BKN016 OVC024 23/23 A3014 RMK AO1 T02260226
KW75 230155Z AUTO 08007G14KT 10SM BKN022 OVC027 23/23 A3014 RMK AO1 T02280228
KW75 230140Z AUTO 06005KT 10SM SCT013 BKN020 OVC027 23/23 A3014 RMK AO1 T02270227
KW75 230115Z AUTO 05006KT 10SM SCT015 OVC021 23/23 A3014 RMK AO1 T02290229
KW75 230055Z AUTO 05008KT 10SM OVC021 24/22 A3013 RMK AO1 T02350222
KW75 230035Z AUTO 02005KT 10SM BKN023 OVC030 24/20 A3012 RMK AO1 T02350201
KW75 230015Z AUTO 02006KT 10SM OVC032 23/20 A3012 RMK AO1 T02320200
KW75 222355Z AUTO 02004KT 10SM OVC036 23/20 A3012 RMK AO1 T02330204 10284 20233
KW75 222335Z AUTO 02005KT 10SM OVC038 23/21 A3011 RMK AO1 T02330206
KW75 222315Z AUTO 01007KT 10SM OVC038 24/21 A3011 RMK AO1 T02360207
KW75 222255Z AUTO 03006KT 10SM BKN040 OVC049 24/21 A3011 RMK AO1 T02380209
KW75 222235Z AUTO 02008KT 10SM BKN036 OVC043 25/21 A3011 RMK AO1 T02450212
KW75 222215Z AUTO 36009KT 10SM BKN036 OVC055 25/22 A3009 RMK AO1 T02500219
KW75 222155Z AUTO 01009KT 10SM SCT036 OVC049 26/22 A3009 RMK AO1 T02550216
KW75 222135Z AUTO 02005KT 10SM BKN036 BKN049 OVC060 26/21 A3008 RMK AO1 T02600213
KW75 222115Z AUTO 01006KT 10SM SCT038 BKN060 27/21 A3008 RMK AO1 T02650214
KW75 222055Z AUTO 36008KT 10SM SCT040 BKN060 27/22 A3008 RMK AO1 T02710218
KW75 222035Z AUTO 36007KT 10SM SCT035 27/22 A3008 RMK AO1 T02740221
KW75 222015Z AUTO 04004KT 10SM SCT037 28/23 A3008 RMK AO1 T02800226
KW75 221955Z AUTO 02006KT 10SM SCT037 28/22 A3008 RMK AO1 T02790222
KW75 221935Z AUTO 02005KT 10SM SCT033 SCT040 SCT120 28/22 A3008 RMK AO1 T02800224
KW75 221915Z AUTO 02006KT 10SM SCT033 SCT040 BKN120 28/23 A3008 RMK AO1 T02790233
KW75 221855Z AUTO 06006KT 10SM SCT033 28/23 A3008 RMK AO1 T02750226
KW75 221835Z AUTO 36006KT 10SM SCT031 28/24 A3008 RMK AO1 T02830237
KW75 221815Z AUTO 05006KT 10SM SCT027 SCT032 27/23 A3008 RMK AO1 T02740234
KW75 221755Z AUTO 06003KT 10SM BKN027 28/25 A3009 RMK AO1 T02800247 10280 20219